This is the latest recevied weather packets stored in our database for station/object KI5MKI. If no packets are shown the sender has not sent any weather packets the latest 1 day(s).
| Time | Temp. | Humidity | Pressure | Rain* | Wind** | Luminosity | Snow |
|---|---|---|---|---|---|---|---|
| 1778016551 | 27.78° C | 69% | 1005.4 hPa | 0 mm | 2.68 m/s, 147° | 462 W/m² | - |
| 1778016248 | 27.78° C | 68% | 1005.5 hPa | 0 mm | 2.24 m/s, 161° | 263 W/m² | - |
| 1778015945 | 27.78° C | 68% | 1005.5 hPa | 0 mm | 1.79 m/s, 221° | 172 W/m² | - |
| 1778015643 | 27.78° C | 68% | 1005.5 hPa | 0 mm | 2.68 m/s, 162° | 217 W/m² | - |
| 1778015338 | 27.78° C | 68% | 1005.6 hPa | 0 mm | 1.79 m/s, 179° | 220 W/m² | - |
| 1778015036 | 27.78° C | 67% | 1005.7 hPa | 0 mm | 1.34 m/s, 161° | 219 W/m² | - |
| 1778014732 | 29.44° C | 65% | 1005.6 hPa | 0 mm | 4.92 m/s, 151° | 254 W/m² | - |
| 1778014431 | 28.89° C | 66% | 1005.5 hPa | 0 mm | 1.34 m/s, 12° | 796 W/m² | - |
| 1778014127 | 29.44° C | 65% | 1005.5 hPa | 0 mm | 0.89 m/s, 104° | 662 W/m² | - |
| 1778013825 | 29.44° C | 67% | 1005.5 hPa | 0 mm | 2.68 m/s, 149° | 854 W/m² | - |
| 1778013522 | 28.89° C | 65% | 1005.5 hPa | 0 mm | 0.89 m/s, 198° | 817 W/m² | - |
| 1778013218 | 28.89° C | 66% | 1005.5 hPa | 0 mm | 1.79 m/s, 156° | 810 W/m² | - |
| 1778012915 | 28.33° C | 67% | 1005.6 hPa | 0 mm | 2.68 m/s, 214° | 784 W/m² | - |
| 1778012611 | 27.22° C | 69% | 1005.7 hPa | 0 mm | 2.68 m/s, 162° | 897 W/m² | - |
| 1778012308 | 27.22° C | 69% | 1005.8 hPa | 0 mm | 4.02 m/s, 149° | 866 W/m² | - |
| 1778012006 | 27.78° C | 68% | 1005.8 hPa | 0 mm | 2.24 m/s, 175° | 441 W/m² | - |
| 1778011704 | 27.78° C | 70% | 1005.8 hPa | 0 mm | 4.02 m/s, 139° | 814 W/m² | - |
| 1778011400 | 27.78° C | 70% | 1005.8 hPa | 0 mm | 1.79 m/s, 196° | 566 W/m² | - |
| 1778011095 | 27.78° C | 69% | 1006 hPa | 0 mm | 2.24 m/s, 185° | 346 W/m² | - |
| 1778010794 | 27.78° C | 70% | 1005.7 hPa | 0 mm | 1.79 m/s, 199° | 440 W/m² | - |
| 1778010490 | 27.78° C | 68% | 1005.7 hPa | 0 mm | 5.36 m/s, 147° | 527 W/m² | - |
| 1778010188 | 27.22° C | 69% | 1005.8 hPa | 0 mm | 1.79 m/s, 183° | 834 W/m² | - |
| 1778009882 | 27.78° C | 70% | 1006 hPa | 0 mm | 1.34 m/s, 206° | 696 W/m² | - |
| 1778009581 | 27.22° C | 70% | 1005.8 hPa | 0 mm | 2.24 m/s, 144° | 573 W/m² | - |
| 1778009279 | 26.67° C | 70% | 1005.9 hPa | 0 mm | 2.24 m/s, 163° | 487 W/m² | - |
* Rain latest hour (hover to see other rain measurements)
** Current wind speed in m/s (hover to see current wind gust speed)